createdAt,value
2022-10-11T00:02:07.180Z,9.60
2022-10-11T00:04:34.139Z,9.30
2022-10-11T00:07:01.004Z,6.70
2022-10-11T00:09:27.949Z,9.35
2022-10-11T00:11:58.110Z,11.10
2022-10-11T00:14:26.003Z,5.03
2022-10-11T00:16:53.397Z,7.43
2022-10-11T00:19:20.511Z,6.47
2022-10-11T00:21:47.748Z,7.18
2022-10-11T00:24:16.111Z,6.75
2022-10-11T00:26:46.855Z,10.65
2022-10-11T00:29:14.411Z,11.48
2022-10-11T00:31:41.232Z,7.53
2022-10-11T00:34:08.740Z,9.02
2022-10-11T00:36:35.802Z,6.18
2022-10-11T00:39:03.268Z,4.95
2022-10-11T00:41:30.379Z,14.80
2022-10-11T00:44:20.505Z,10.10
2022-10-11T00:47:03.811Z,5.30
2022-10-11T00:49:43.963Z,8.88
2022-10-11T00:52:33.855Z,7.78
2022-10-11T00:55:11.043Z,9.90
2022-10-11T00:57:41.990Z,6.13
2022-10-11T01:00:12.020Z,4.90
2022-10-11T01:02:40.161Z,10.10
2022-10-11T01:05:28.040Z,5.90
2022-10-11T01:07:56.159Z,7.25
2022-10-11T01:10:23.016Z,4.20
2022-10-11T01:12:52.757Z,5.82
2022-10-11T01:15:23.355Z,8.73
2022-10-11T01:17:59.553Z,8.25
2022-10-11T01:20:49.983Z,6.82
2022-10-11T01:23:37.857Z,6.05
2022-10-11T01:26:49.005Z,6.85
2022-10-11T01:29:44.340Z,8.27
2022-10-11T01:32:34.452Z,8.95
2022-10-11T01:35:30.023Z,7.07
2022-10-11T01:38:34.120Z,7.88
2022-10-11T01:41:08.952Z,10.95
2022-10-11T01:43:37.393Z,10.00
2022-10-11T01:46:05.537Z,10.70
2022-10-11T01:48:32.632Z,8.30
2022-10-11T01:51:02.068Z,7.10
2022-10-11T01:53:56.959Z,4.97
2022-10-11T01:56:50.935Z,11.68
2022-10-11T01:59:31.984Z,6.28
2022-10-11T02:02:26.855Z,7.97
2022-10-11T02:05:02.985Z,8.13
2022-10-11T02:07:42.819Z,5.25
2022-10-11T02:10:25.312Z,5.95
2022-10-11T02:13:02.618Z,8.75
2022-10-11T02:15:32.126Z,7.05
2022-10-11T02:18:02.448Z,7.72
2022-10-11T02:20:31.949Z,9.15
2022-10-11T02:23:15.047Z,12.32
2022-10-11T02:25:44.336Z,5.05
2022-10-11T02:28:20.371Z,5.30
2022-10-11T02:30:49.483Z,7.85
2022-10-11T02:33:21.574Z,11.13
2022-10-11T02:35:55.074Z,6.72
2022-10-11T02:38:36.601Z,8.77
2022-10-11T02:41:15.917Z,9.45
2022-10-11T02:43:48.337Z,8.25
2022-10-11T02:46:17.719Z,11.13
2022-10-11T02:48:44.558Z,8.57
2022-10-11T02:51:14.052Z,8.20
2022-10-11T02:53:40.800Z,10.20
2022-10-11T02:56:08.227Z,9.13
2022-10-11T02:58:35.495Z,8.52
2022-10-11T03:01:02.270Z,8.65
2022-10-11T03:03:29.023Z,9.13
2022-10-11T03:06:00.601Z,10.40
2022-10-11T03:08:27.533Z,5.78
2022-10-11T03:10:54.414Z,8.20
2022-10-11T03:13:21.311Z,8.68
2022-10-11T03:16:01.916Z,9.73
2022-10-11T03:18:29.930Z,11.05
2022-10-11T03:20:56.744Z,9.63
2022-10-11T03:23:23.547Z,9.68
2022-10-11T03:25:51.947Z,13.52
2022-10-11T03:28:19.137Z,24.67
2022-10-11T03:30:49.641Z,21.95
2022-10-11T03:33:17.178Z,28.33
2022-10-11T03:35:45.627Z,30.20
2022-10-11T03:38:18.763Z,26.90
2022-10-11T03:40:45.597Z,31.33
2022-10-11T03:43:12.470Z,26.98
2022-10-11T03:45:39.512Z,24.13
2022-10-11T03:48:06.575Z,25.98
2022-10-11T03:50:33.392Z,24.48
2022-10-11T03:53:00.261Z,22.08
2022-10-11T03:55:27.004Z,23.80
2022-10-11T03:57:53.844Z,20.60
2022-10-11T04:00:20.782Z,31.70
2022-10-11T04:02:47.569Z,30.50
2022-10-11T04:05:14.612Z,22.35
2022-10-11T04:07:41.471Z,23.00
2022-10-11T04:10:08.604Z,25.55
2022-10-11T04:12:37.302Z,26.45
2022-10-11T04:15:05.147Z,24.67
2022-10-11T04:17:31.930Z,24.50
2022-10-11T04:19:58.650Z,26.50
2022-10-11T04:22:25.397Z,28.25
2022-10-11T04:24:52.216Z,26.20
2022-10-11T04:27:18.972Z,26.85
2022-10-11T04:29:45.681Z,24.88
2022-10-11T04:32:12.439Z,23.48
2022-10-11T04:34:39.250Z,36.45
2022-10-11T04:37:06.068Z,23.40
2022-10-11T04:39:32.788Z,27.90
2022-10-11T04:41:59.577Z,25.48
2022-10-11T04:44:26.375Z,26.85
2022-10-11T04:46:53.147Z,25.48
2022-10-11T04:49:20.145Z,25.20
2022-10-11T04:51:46.959Z,28.80
2022-10-11T04:54:13.883Z,28.50
2022-10-11T04:56:41.071Z,29.20
2022-10-11T04:59:07.827Z,27.42
2022-10-11T05:01:35.310Z,28.77
2022-10-11T05:04:02.177Z,26.15
2022-10-11T05:06:28.966Z,34.33
2022-10-11T05:08:55.711Z,31.10
2022-10-11T05:11:22.479Z,32.65
2022-10-11T05:13:49.291Z,34.35
2022-10-11T05:16:17.685Z,32.55
2022-10-11T05:18:44.960Z,27.15
2022-10-11T05:21:20.832Z,25.67
2022-10-11T05:23:49.084Z,25.13
2022-10-11T05:26:16.744Z,28.05
2022-10-11T05:28:44.225Z,26.80
2022-10-11T05:31:11.300Z,30.98
2022-10-11T05:33:38.315Z,31.90
2022-10-11T05:36:06.514Z,33.05
2022-10-11T05:38:34.082Z,32.40
2022-10-11T05:41:01.993Z,28.25
2022-10-11T05:43:29.710Z,30.48
2022-10-11T05:45:57.372Z,31.35
2022-10-11T05:48:26.150Z,26.10
2022-10-11T05:50:53.259Z,37.30
2022-10-11T05:53:20.053Z,24.60
2022-10-11T05:55:46.784Z,34.10
2022-10-11T05:58:14.961Z,30.13
2022-10-11T06:00:41.719Z,29.98
2022-10-11T06:03:11.268Z,34.97
2022-10-11T06:05:38.613Z,25.48
2022-10-11T06:08:06.580Z,26.70
2022-10-11T06:10:33.776Z,28.73
2022-10-11T06:13:00.533Z,28.60
2022-10-11T06:15:27.371Z,34.53
2022-10-11T06:17:54.186Z,31.17
2022-10-11T06:20:20.891Z,38.78
2022-10-11T06:22:47.665Z,29.40
2022-10-11T06:25:14.414Z,35.60
2022-10-11T06:27:41.171Z,35.10
2022-10-11T06:30:08.345Z,27.40
2022-10-11T06:32:35.060Z,23.75
2022-10-11T06:35:03.403Z,30.55
2022-10-11T06:37:30.362Z,30.73
2022-10-11T06:39:57.095Z,32.42
2022-10-11T06:42:23.825Z,33.13
2022-10-11T06:44:50.566Z,33.85
2022-10-11T06:47:17.317Z,25.80
2022-10-11T06:49:44.076Z,36.00
2022-10-11T06:52:10.924Z,31.00
2022-10-11T06:54:41.208Z,29.52
2022-10-11T06:57:10.728Z,27.48
2022-10-11T06:59:37.454Z,30.15
2022-10-11T07:02:04.179Z,32.28
2022-10-11T07:04:31.007Z,23.98
2022-10-11T07:06:57.745Z,22.85
2022-10-11T07:09:24.509Z,30.20
2022-10-11T07:11:51.295Z,27.10
2022-10-11T07:14:18.010Z,27.52
2022-10-11T07:16:44.772Z,26.83
2022-10-11T07:19:11.678Z,31.25
2022-10-11T07:21:38.595Z,27.65
2022-10-11T07:24:05.828Z,27.95
2022-10-11T07:26:38.487Z,27.05
2022-10-11T07:29:39.261Z,28.23
2022-10-11T07:32:06.286Z,31.42
2022-10-11T07:34:33.389Z,35.65
2022-10-11T07:37:00.162Z,30.00
2022-10-11T07:39:26.918Z,26.25
2022-10-11T07:41:53.664Z,30.05
2022-10-11T07:44:20.455Z,31.00
2022-10-11T07:46:47.194Z,29.00
2022-10-11T07:49:14.216Z,27.08
2022-10-11T07:51:40.930Z,32.80
2022-10-11T07:54:08.090Z,26.23
2022-10-11T07:56:35.167Z,23.63
2022-10-11T07:59:03.568Z,30.85
2022-10-11T08:01:31.987Z,31.40
2022-10-11T08:03:59.467Z,28.35
2022-10-11T08:06:31.564Z,34.70
2022-10-11T08:09:00.538Z,29.98
2022-10-11T08:11:32.768Z,34.03
2022-10-11T08:14:01.119Z,32.53
2022-10-11T08:16:28.243Z,29.95
2022-10-11T08:18:56.995Z,26.33
2022-10-11T08:21:24.508Z,29.52
2022-10-11T08:23:51.250Z,34.00
2022-10-11T08:26:18.632Z,33.22
2022-10-11T08:28:45.584Z,26.58
2022-10-11T08:31:16.627Z,30.08
2022-10-11T08:33:43.948Z,27.52
2022-10-11T08:36:11.763Z,26.90
2022-10-11T08:38:39.087Z,27.35
2022-10-11T08:41:43.844Z,28.13
2022-10-11T08:45:05.523Z,27.45
2022-10-11T08:49:55.443Z,23.67
2022-10-11T08:52:28.679Z,24.10
2022-10-11T08:57:27.302Z,32.53
2022-10-11T08:59:58.435Z,32.30
2022-10-11T09:03:08.051Z,27.77
2022-10-11T09:05:39.503Z,29.10
2022-10-11T09:08:35.483Z,24.58
2022-10-11T09:11:08.027Z,24.88
2022-10-11T09:14:22.435Z,31.80
2022-10-11T09:16:57.762Z,27.20
2022-10-11T09:20:15.164Z,29.80
2022-10-11T09:22:43.038Z,29.83
2022-10-11T09:25:29.134Z,28.23
2022-10-11T09:28:17.729Z,26.08
2022-10-11T09:30:50.514Z,34.20
2022-10-11T09:33:35.382Z,30.08
2022-10-11T09:36:12.116Z,26.38
2022-10-11T09:39:16.093Z,25.58
2022-10-11T09:44:24.256Z,30.50
2022-10-11T09:46:54.274Z,25.77
2022-10-11T09:49:25.385Z,24.77
2022-10-11T09:51:55.750Z,23.42
2022-10-11T09:54:36.450Z,22.50
2022-10-11T09:57:03.260Z,28.15
2022-10-11T09:59:36.096Z,25.67
2022-10-11T10:02:14.931Z,23.92
2022-10-11T10:05:08.079Z,24.75
2022-10-11T10:07:37.712Z,20.80
2022-10-11T10:10:28.637Z,21.17
2022-10-11T10:12:59.095Z,25.45
2022-10-11T10:15:36.022Z,24.60
2022-10-11T10:18:05.909Z,33.05
2022-10-11T10:20:35.367Z,30.45
2022-10-11T10:23:19.296Z,20.90
2022-10-11T10:25:51.067Z,25.23
2022-10-11T10:28:20.287Z,35.10
2022-10-11T10:30:54.559Z,26.30
2022-10-11T10:33:29.881Z,26.35
2022-10-11T10:36:12.363Z,24.63
2022-10-11T10:38:51.901Z,22.23
2022-10-11T10:41:19.407Z,27.48
2022-10-11T10:43:55.791Z,23.85
2022-10-11T10:46:28.559Z,29.90
2022-10-11T10:49:28.770Z,30.42
2022-10-11T10:52:12.344Z,30.80
2022-10-11T10:54:55.934Z,29.05
2022-10-11T10:57:36.375Z,26.42
2022-10-11T11:00:17.297Z,27.25
2022-10-11T11:03:03.851Z,28.38
2022-10-11T11:05:58.102Z,27.75
2022-10-11T11:08:43.771Z,27.65
2022-10-11T11:11:40.628Z,23.63
2022-10-11T11:14:38.058Z,24.95
2022-10-11T11:17:29.514Z,25.13
2022-10-11T11:20:22.064Z,27.17
2022-10-11T11:23:11.426Z,24.52
2022-10-11T11:25:45.147Z,26.55
2022-10-11T11:28:36.955Z,23.52
2022-10-11T11:31:30.938Z,22.45
2022-10-11T11:34:21.882Z,21.00
2022-10-11T11:37:02.403Z,24.25
2022-10-11T11:39:43.872Z,20.42
2022-10-11T11:42:34.663Z,25.70
2022-10-11T11:45:13.124Z,26.08
2022-10-11T11:47:45.791Z,25.55
2022-10-11T11:50:23.942Z,21.90
2022-10-11T11:53:04.225Z,23.02
2022-10-11T11:55:35.570Z,19.65
2022-10-11T11:58:17.253Z,24.08
2022-10-11T12:00:53.792Z,19.60
2022-10-11T12:03:41.717Z,22.70
2022-10-11T12:06:31.572Z,24.60
2022-10-11T12:09:09.278Z,21.27
2022-10-11T12:12:00.765Z,30.90
2022-10-11T12:14:33.577Z,26.13
2022-10-11T12:17:24.185Z,26.67
2022-10-11T12:20:08.964Z,17.88
2022-10-11T12:22:49.341Z,19.33
2022-10-11T12:25:18.560Z,29.50
2022-10-11T12:27:49.528Z,28.02
2022-10-11T12:30:44.394Z,19.83
2022-10-11T12:33:26.125Z,23.40
2022-10-11T12:35:52.930Z,21.08
2022-10-11T12:38:42.165Z,21.88
2022-10-11T12:41:08.895Z,25.13
2022-10-11T12:43:36.905Z,20.45
2022-10-11T12:46:28.900Z,18.73
2022-10-11T12:49:14.088Z,18.63
2022-10-11T12:52:03.948Z,21.15
2022-10-11T12:54:50.179Z,19.65
2022-10-11T12:57:42.534Z,21.85
2022-10-11T13:00:29.110Z,23.60
2022-10-11T13:02:57.731Z,20.40
2022-10-11T13:05:45.297Z,26.50
2022-10-11T13:08:29.087Z,22.35
2022-10-11T13:11:01.094Z,27.65
2022-10-11T13:13:58.528Z,22.42
2022-10-11T13:16:42.331Z,20.27
2022-10-11T13:19:13.290Z,17.13
2022-10-11T13:21:40.852Z,19.40
2022-10-11T13:24:17.561Z,18.67
2022-10-11T13:26:46.189Z,19.90
2022-10-11T13:29:18.401Z,20.85
2022-10-11T13:31:47.285Z,19.98
2022-10-11T13:34:16.732Z,17.45
2022-10-11T13:36:45.502Z,14.48
2022-10-11T13:39:38.086Z,19.02
2022-10-11T13:42:12.111Z,17.92
2022-10-11T13:44:40.264Z,21.23
2022-10-11T13:47:09.391Z,19.58
2022-10-11T13:49:37.795Z,22.50
2022-10-11T13:52:19.252Z,17.95
2022-10-11T13:55:04.291Z,16.15
2022-10-11T13:57:38.810Z,17.25
2022-10-11T14:00:20.468Z,16.02
2022-10-11T14:02:54.541Z,15.27
2022-10-11T14:05:25.719Z,13.00
2022-10-11T14:07:52.616Z,20.65
2022-10-11T14:10:21.002Z,16.98
2022-10-11T14:12:59.326Z,19.35
2022-10-11T14:15:34.503Z,17.80
2022-10-11T14:18:22.526Z,17.08
2022-10-11T14:20:49.371Z,13.60
2022-10-11T14:23:16.098Z,19.52
2022-10-11T14:25:42.993Z,14.65
2022-10-11T14:28:12.807Z,13.25
2022-10-11T14:30:41.427Z,16.70
2022-10-11T14:33:08.269Z,14.10
2022-10-11T14:35:36.818Z,16.13
2022-10-11T14:38:03.574Z,16.30
2022-10-11T14:40:31.681Z,10.88
2022-10-11T14:42:58.696Z,14.55
2022-10-11T14:45:25.823Z,15.23
2022-10-11T14:47:52.586Z,12.45
2022-10-11T14:50:39.189Z,17.42
2022-10-11T14:53:07.942Z,12.27
2022-10-11T14:55:38.877Z,17.92
2022-10-11T14:58:06.929Z,15.55
2022-10-11T15:00:35.202Z,17.23
2022-10-11T15:03:02.368Z,17.70
2022-10-11T15:05:33.944Z,21.83
2022-10-11T15:08:02.103Z,16.30
2022-10-11T15:10:30.519Z,13.38
2022-10-11T15:12:57.863Z,14.00
2022-10-11T15:15:26.902Z,15.55
2022-10-11T15:17:56.653Z,15.57
2022-10-11T15:20:33.255Z,18.38
2022-10-11T15:23:00.959Z,15.65
2022-10-11T15:25:29.053Z,14.13
2022-10-11T15:27:56.702Z,13.40
2022-10-11T15:30:37.133Z,14.75
2022-10-11T15:33:07.009Z,14.30
2022-10-11T15:35:33.753Z,14.50
2022-10-11T15:38:00.589Z,12.32
2022-10-11T15:40:33.428Z,14.85
2022-10-11T15:43:00.580Z,21.13
2022-10-11T15:45:28.690Z,13.73
2022-10-11T15:47:55.771Z,13.50
2022-10-11T15:50:34.945Z,15.85
2022-10-11T15:53:08.137Z,13.55
2022-10-11T15:58:02.718Z,17.80
2022-10-11T16:00:30.169Z,14.80
2022-10-11T16:02:58.274Z,16.88
2022-10-11T16:05:27.231Z,15.73
2022-10-11T16:07:54.436Z,19.35
2022-10-11T16:10:21.616Z,17.15
2022-10-11T16:12:48.461Z,16.67
2022-10-11T16:15:16.262Z,17.70
2022-10-11T16:17:43.105Z,16.30
2022-10-11T16:20:09.955Z,15.10
2022-10-11T16:22:36.924Z,18.75
2022-10-11T16:25:04.836Z,13.63
2022-10-11T16:27:32.222Z,14.70
2022-10-11T16:29:59.836Z,19.92
2022-10-11T16:32:27.386Z,18.88
2022-10-11T16:34:54.181Z,15.82
2022-10-11T16:37:20.943Z,18.35
2022-10-11T16:39:47.737Z,14.75
2022-10-11T16:42:14.484Z,16.83
2022-10-11T16:44:41.224Z,20.58
2022-10-11T16:47:08.104Z,18.17
2022-10-11T16:49:35.226Z,23.70
2022-10-11T16:52:04.690Z,16.45
2022-10-11T16:54:31.920Z,17.60
2022-10-11T16:56:59.163Z,16.20
2022-10-11T16:59:26.015Z,18.42
2022-10-11T17:01:52.793Z,17.30
2022-10-11T17:04:19.555Z,16.25
2022-10-11T17:06:46.365Z,14.25
2022-10-11T17:09:13.307Z,19.48
2022-10-11T17:11:40.766Z,20.73
2022-10-11T17:14:07.698Z,23.50
2022-10-11T17:16:35.249Z,18.63
2022-10-11T17:19:02.655Z,19.15
2022-10-11T17:21:29.734Z,17.15
2022-10-11T17:23:56.521Z,19.60
2022-10-11T17:26:26.266Z,18.23
2022-10-11T17:28:58.079Z,21.70
2022-10-11T17:31:25.881Z,20.63
2022-10-11T17:33:54.356Z,17.50
2022-10-11T17:36:23.646Z,17.70
2022-10-11T17:38:51.615Z,21.38
2022-10-11T17:41:18.930Z,17.05
2022-10-11T17:43:46.526Z,19.48
2022-10-11T17:46:15.593Z,18.73
2022-10-11T17:48:42.661Z,19.83
2022-10-11T17:51:11.679Z,20.33
2022-10-11T17:53:38.950Z,16.98
2022-10-11T17:56:11.927Z,18.83
2022-10-11T17:58:39.307Z,19.95
2022-10-11T18:01:13.009Z,15.40
2022-10-11T18:03:40.080Z,19.63
2022-10-11T18:06:08.719Z,22.13
2022-10-11T18:08:40.387Z,20.95
2022-10-11T18:11:13.366Z,25.15
2022-10-11T18:13:43.211Z,17.70
2022-10-11T18:16:10.866Z,14.80
2022-10-11T18:18:39.004Z,19.23
2022-10-11T18:21:05.950Z,24.30
2022-10-11T18:23:32.791Z,19.88
2022-10-11T18:25:59.557Z,21.40
2022-10-11T18:28:26.296Z,20.90
2022-10-11T18:30:53.196Z,21.52
2022-10-11T18:33:19.974Z,18.08
2022-10-11T18:35:46.722Z,19.95
2022-10-11T18:38:13.462Z,18.90
2022-10-11T18:40:43.521Z,18.42
2022-10-11T18:43:13.706Z,20.50
2022-10-11T18:45:40.577Z,19.60
2022-10-11T18:48:08.682Z,19.48
2022-10-11T18:50:35.551Z,17.13
2022-10-11T18:55:29.886Z,24.88
2022-10-11T18:57:56.777Z,20.25
2022-10-11T19:00:40.065Z,23.70
2022-10-11T19:03:07.275Z,17.38
2022-10-11T19:05:34.000Z,17.50
2022-10-11T19:08:00.801Z,18.17
2022-10-11T19:10:28.079Z,19.75
2022-10-11T19:12:54.759Z,19.98
2022-10-11T19:15:25.250Z,21.45
2022-10-11T19:17:54.663Z,21.30
2022-10-11T19:20:21.427Z,19.63
2022-10-11T19:22:48.154Z,21.52
2022-10-11T19:25:14.895Z,25.88
2022-10-11T19:27:41.609Z,26.98
2022-10-11T19:30:08.876Z,15.32
2022-10-11T19:32:35.582Z,19.02
2022-10-11T19:35:02.305Z,20.70
2022-10-11T19:37:29.150Z,19.48
2022-10-11T19:39:56.068Z,24.50
2022-10-11T19:42:22.809Z,21.05
2022-10-11T19:44:49.620Z,24.55
2022-10-11T19:47:16.383Z,24.42
2022-10-11T19:49:43.089Z,20.67
2022-10-11T19:52:10.019Z,22.48
2022-10-11T19:54:36.736Z,19.50
2022-10-11T19:57:03.566Z,19.40
2022-10-11T19:59:30.409Z,21.20
2022-10-11T20:01:57.143Z,23.45
2022-10-11T20:07:11.008Z,22.95
2022-10-11T20:09:37.795Z,19.67
2022-10-11T20:12:04.790Z,21.40
2022-10-11T20:14:31.640Z,22.08
2022-10-11T20:16:58.403Z,20.00
2022-10-11T20:19:30.713Z,20.45
2022-10-11T20:21:57.972Z,16.98
2022-10-11T20:24:27.253Z,19.50
2022-10-11T20:26:54.116Z,20.77
2022-10-11T20:29:20.910Z,24.02
2022-10-11T20:31:47.609Z,23.45
2022-10-11T20:34:14.686Z,22.05
2022-10-11T20:36:42.972Z,28.80
2022-10-11T20:39:12.856Z,19.13
2022-10-11T20:41:42.878Z,20.15
2022-10-11T20:44:11.158Z,21.92
2022-10-11T20:46:38.963Z,26.50
2022-10-11T20:49:08.634Z,22.77
2022-10-11T20:51:38.146Z,18.55
2022-10-11T20:54:05.511Z,19.70
2022-10-11T20:56:32.534Z,23.17
2022-10-11T20:58:59.544Z,24.10
2022-10-11T21:01:32.380Z,19.77
2022-10-11T21:04:01.175Z,20.50
2022-10-11T21:06:28.925Z,21.00
2022-10-11T21:08:56.571Z,23.42
2022-10-11T21:11:31.188Z,24.08
2022-10-11T21:14:00.165Z,22.02
2022-10-11T21:16:27.925Z,18.30
2022-10-11T21:18:56.347Z,20.88
2022-10-11T21:21:24.087Z,24.73
2022-10-11T21:23:58.761Z,27.85
2022-10-11T21:26:27.338Z,19.45
2022-10-11T21:28:54.481Z,16.98
2022-10-11T21:31:22.406Z,27.52
2022-10-11T21:33:49.483Z,23.10
2022-10-11T21:36:19.074Z,18.45
2022-10-11T21:38:46.364Z,21.67
2022-10-11T21:41:16.182Z,20.48
2022-10-11T21:43:43.450Z,27.02
2022-10-11T21:46:32.522Z,24.00
2022-10-11T21:49:08.756Z,25.88
2022-10-11T21:51:35.562Z,22.77
2022-10-11T21:54:02.332Z,20.42
2022-10-11T21:56:30.029Z,17.50
2022-10-11T21:58:57.336Z,20.02
2022-10-11T22:01:24.324Z,18.70
2022-10-11T22:03:53.426Z,26.23
2022-10-11T22:06:20.830Z,21.75
2022-10-11T22:08:48.887Z,23.60
2022-10-11T22:11:16.092Z,20.48
2022-10-11T22:13:42.939Z,25.45
2022-10-11T22:16:11.767Z,25.35
2022-10-11T22:18:39.406Z,22.13
2022-10-11T22:21:14.155Z,22.25
2022-10-11T22:23:42.093Z,24.08
2022-10-11T22:26:13.009Z,22.55
2022-10-11T22:28:40.291Z,24.02
2022-10-11T22:31:08.866Z,20.92
2022-10-11T22:33:35.859Z,22.27
2022-10-11T22:36:08.572Z,22.60
2022-10-11T22:38:36.648Z,24.35
2022-10-11T22:41:03.414Z,22.58
2022-10-11T22:43:30.195Z,19.98
2022-10-11T22:45:56.998Z,20.90
2022-10-11T22:48:23.736Z,23.88
2022-10-11T22:50:51.347Z,26.98
2022-10-11T22:53:18.344Z,21.50
2022-10-11T22:55:45.118Z,23.33
2022-10-11T22:58:11.902Z,23.20
2022-10-11T23:00:38.767Z,23.60
2022-10-11T23:03:07.298Z,32.45
2022-10-11T23:05:35.120Z,26.35
2022-10-11T23:08:01.890Z,24.50
2022-10-11T23:10:28.954Z,18.92
2022-10-11T23:12:55.667Z,22.27
2022-10-11T23:15:22.534Z,21.60
2022-10-11T23:17:49.321Z,23.65
2022-10-11T23:20:16.195Z,25.33
2022-10-11T23:22:42.923Z,18.77
2022-10-11T23:25:10.061Z,23.55
2022-10-11T23:27:37.050Z,24.10
2022-10-11T23:30:04.751Z,24.70
2022-10-11T23:32:31.466Z,21.90
2022-10-11T23:34:58.382Z,23.08
2022-10-11T23:37:25.203Z,25.58
2022-10-11T23:39:51.983Z,24.27
2022-10-11T23:42:18.699Z,23.23
2022-10-11T23:44:45.751Z,23.10
2022-10-11T23:47:12.562Z,23.35
2022-10-11T23:49:39.289Z,17.45
2022-10-11T23:52:06.027Z,25.30
2022-10-11T23:54:32.764Z,25.75
2022-10-11T23:56:59.521Z,21.83
2022-10-11T23:59:26.312Z,24.95
